Time;durP1;ratioP1;P1;durP2;ratioP2;P2;SDS_P1;SDS_P2;PMS_P1;PMS_P2;Temp;Humidity;BMP_temperature;BMP_pressure;BME280_temperature;BME280_humidity;BME280_pressure;Samples;Min_cycle;Max_cycle;Signal;HPM_P1;HPM_P2
2024/03/16 00:01:12;;;;;;;1.50;0.70;;;10.10;1.00;;;;;;7365469;19;20021;-71
2024/03/16 00:03:45;;;;;;;1.10;0.80;;;10.20;1.00;;;;;;7362573;19;20023;-71
2024/03/16 00:06:15;;;;;;;2.40;0.75;;;10.20;1.00;;;;;;7367080;19;20015;-72
2024/03/16 00:08:45;;;;;;;1.65;0.60;;;10.20;1.00;;;;;;7363120;19;20533;-73
2024/03/16 00:11:15;;;;;;;1.05;0.65;;;10.20;1.00;;;;;;7366059;19;20607;-72
2024/03/16 00:13:45;;;;;;;1.65;0.70;;;10.20;1.00;;;;;;7367862;19;20002;-73
2024/03/16 00:16:15;;;;;;;1.33;0.90;;;10.30;1.00;;;;;;7365644;19;20036;-73
2024/03/16 00:18:48;;;;;;;1.50;0.75;;;10.20;1.00;;;;;;7366152;19;20097;-71
2024/03/16 00:21:18;;;;;;;3.55;0.70;;;10.20;1.00;;;;;;7362713;19;20006;-71
2024/03/16 00:23:48;;;;;;;1.33;0.77;;;10.20;1.00;;;;;;7369552;19;20454;-73
2024/03/16 00:26:18;;;;;;;1.40;1.00;;;10.20;1.00;;;;;;7376827;19;20015;-71
2024/03/16 00:28:50;;;;;;;3.03;0.75;;;10.30;1.00;;;;;;7377402;19;20007;-71
2024/03/16 00:31:21;;;;;;;1.85;0.90;;;10.30;1.00;;;;;;7379182;19;20451;-71
2024/03/16 00:33:53;;;;;;;1.55;0.80;;;10.30;1.00;;;;;;7378563;19;20011;-72
2024/03/16 00:36:24;;;;;;;1.85;0.70;;;10.20;1.00;;;;;;7377405;19;20007;-74
2024/03/16 00:38:54;;;;;;;0.60;0.40;;;10.20;1.00;;;;;;7378186;19;20013;-72
2024/03/16 00:41:24;;;;;;;1.45;0.55;;;10.10;1.00;;;;;;7378321;19;20808;-73
2024/03/16 00:43:54;;;;;;;3.22;0.50;;;10.00;1.00;;;;;;7378450;19;20427;-73
2024/03/16 00:46:24;;;;;;;2.22;0.60;;;9.90;1.00;;;;;;7375284;19;20010;-73
2024/03/16 00:48:57;;;;;;;1.50;0.68;;;9.90;8.70;;;;;;7376549;19;20022;-74
2024/03/16 00:51:28;;;;;;;1.48;0.40;;;9.90;8.30;;;;;;7377579;19;20010;-73
2024/03/16 00:53:58;;;;;;;0.70;0.47;;;9.90;7.30;;;;;;7376592;19;20034;-72
2024/03/16 00:56:28;;;;;;;1.35;0.57;;;9.90;1.00;;;;;;7375997;19;20014;-72
2024/03/16 00:58:58;;;;;;;1.10;0.57;;;9.90;1.00;;;;;;7376956;19;20010;-72
2024/03/16 01:01:33;;;;;;;0.55;0.47;;;10.00;1.00;;;;;;7376927;19;20565;-72
2024/03/16 01:04:06;;;;;;;1.00;0.60;;;10.00;1.00;;;;;;7376055;19;20011;-73
2024/03/16 01:06:36;;;;;;;0.55;0.40;;;9.90;1.00;;;;;;7374975;19;20051;-72
2024/03/16 01:09:07;;;;;;;1.13;0.52;;;9.90;1.00;;;;;;7375891;19;20019;-72
2024/03/16 01:11:37;;;;;;;2.20;0.40;;;9.90;1.00;;;;;;7376700;19;20033;-72
2024/03/16 01:14:08;;;;;;;1.85;0.50;;;9.90;1.00;;;;;;7376380;19;20038;-72
2024/03/16 01:16:38;;;;;;;1.33;0.45;;;9.90;1.00;;;;;;7375682;19;20467;-72
2024/03/16 01:19:11;;;;;;;1.58;0.40;;;9.90;1.00;;;;;;7376328;19;20478;-71
2024/03/16 01:21:41;;;;;;;1.30;0.70;;;9.90;1.00;;;;;;7377072;19;20075;-71
2024/03/16 01:24:11;;;;;;;0.75;0.45;;;9.90;1.00;;;;;;7375920;19;20023;-72
2024/03/16 01:26:41;;;;;;;1.10;0.50;;;9.90;1.00;;;;;;7374762;19;20025;-72
2024/03/16 01:29:15;;;;;;;1.70;0.60;;;9.90;1.00;;;;;;7376460;19;20078;-72
2024/03/16 01:31:46;;;;;;;1.63;0.80;;;9.90;1.00;;;;;;7377847;19;20026;-72
2024/03/16 01:34:18;;;;;;;2.70;0.45;;;9.90;1.00;;;;;;7378042;19;20030;-71
2024/03/16 01:36:49;;;;;;;0.90;0.60;;;9.90;1.00;;;;;;7373114;19;20007;-71
2024/03/16 01:39:19;;;;;;;2.45;0.80;;;9.90;1.00;;;;;;7377199;19;20007;-71
2024/03/16 01:41:49;;;;;;;1.70;0.57;;;9.90;1.00;;;;;;7377082;19;20519;-71
2024/03/16 01:44:19;;;;;;;4.78;1.38;;;9.90;1.00;;;;;;7374239;19;20003;-71
2024/03/16 01:46:49;;;;;;;1.15;0.73;;;9.80;1.00;;;;;;7372287;19;20462;-71
2024/03/16 01:49:21;;;;;;;0.80;0.32;;;9.90;1.00;;;;;;7372703;19;20006;-71
2024/03/16 01:51:51;;;;;;;1.20;0.50;;;9.90;1.00;;;;;;7372945;19;20018;-71
2024/03/16 01:54:22;;;;;;;1.00;0.70;;;9.80;1.00;;;;;;7375220;19;20041;-73
2024/03/16 01:56:52;;;;;;;1.67;0.57;;;9.80;1.00;;;;;;7374222;19;20479;-71
2024/03/16 01:59:22;;;;;;;0.73;0.45;;;9.80;1.00;;;;;;7375515;19;20014;-71
2024/03/16 02:01:52;;;;;;;1.77;0.57;;;9.80;1.00;;;;;;7379347;19;20035;-71
2024/03/16 02:04:24;;;;;;;1.63;0.60;;;9.80;1.00;;;;;;7379891;19;20010;-71
2024/03/16 02:06:54;;;;;;;1.55;0.68;;;9.90;1.00;;;;;;7382404;19;20412;-72
2024/03/16 02:09:24;;;;;;;0.60;0.30;;;9.90;1.00;;;;;;7382779;19;20023;-72
2024/03/16 02:11:54;;;;;;;1.15;0.75;;;9.90;1.00;;;;;;7379786;19;20015;-73
2024/03/16 02:14:24;;;;;;;1.13;0.50;;;9.90;1.00;;;;;;7382856;19;20030;-72
2024/03/16 02:16:55;;;;;;;0.40;0.30;;;9.90;1.00;;;;;;7380607;19;20011;-72
2024/03/16 02:19:25;;;;;;;0.73;0.45;;;9.90;1.00;;;;;;7381224;19;20018;-73
2024/03/16 02:21:58;;;;;;;0.82;0.30;;;9.90;1.00;;;;;;7380902;19;20021;-71
2024/03/16 02:24:28;;;;;;;1.50;0.50;;;9.90;1.00;;;;;;7382164;19;20024;-72
2024/03/16 02:26:58;;;;;;;0.98;0.40;;;9.90;1.00;;;;;;7379816;19;20760;-72
2024/03/16 02:29:28;;;;;;;1.70;0.50;;;9.90;1.00;;;;;;7382425;19;20490;-72
2024/03/16 02:31:58;;;;;;;2.20;0.68;;;9.90;1.00;;;;;;7380635;19;20029;-72
2024/03/16 02:34:28;;;;;;;0.50;0.30;;;9.90;1.00;;;;;;7379445;19;20039;-71
2024/03/16 02:37:01;;;;;;;0.90;0.50;;;9.80;1.00;;;;;;7380017;19;20033;-71
2024/03/16 02:39:32;;;;;;;1.00;0.65;;;9.70;1.00;;;;;;7380411;19;20236;-72
2024/03/16 02:42:03;;;;;;;0.98;0.40;;;9.80;1.00;;;;;;7380764;19;20086;-73
2024/03/16 02:44:34;;;;;;;1.02;0.50;;;9.70;1.00;;;;;;7381391;19;20018;-72
2024/03/16 02:47:04;;;;;;;2.40;0.60;;;9.70;1.00;;;;;;7379651;19;20035;-72
2024/03/16 02:49:34;;;;;;;0.98;0.50;;;9.70;1.00;;;;;;7381672;19;20377;-72
2024/03/16 02:52:09;;;;;;;3.33;0.70;;;9.60;1.00;;;;;;7381136;19;20055;-71
2024/03/16 02:54:39;;;;;;;1.00;0.55;;;9.60;1.00;;;;;;7379838;19;20570;-71
2024/03/16 02:57:09;;;;;;;1.05;0.50;;;9.50;1.00;;;;;;7379910;19;20016;-71
2024/03/16 02:59:40;;;;;;;1.90;0.60;;;9.50;1.00;;;;;;7380681;19;20018;-72
2024/03/16 03:02:10;;;;;;;2.33;0.70;;;9.60;1.00;;;;;;7381491;19;20018;-72
2024/03/16 03:04:40;;;;;;;3.70;0.90;;;9.60;1.00;;;;;;7381958;19;20549;-73
2024/03/16 03:07:12;;;;;;;2.80;0.80;;;9.70;1.00;;;;;;7379582;19;20507;-72
2024/03/16 03:09:43;;;;;;;1.67;0.60;;;9.70;1.00;;;;;;7381436;19;20026;-72
2024/03/16 03:12:14;;;;;;;2.00;0.55;;;9.70;1.00;;;;;;7380871;19;20022;-72
2024/03/16 03:14:44;;;;;;;6.88;0.80;;;9.70;1.00;;;;;;7378339;19;20015;-72
2024/03/16 03:17:14;;;;;;;2.28;0.73;;;9.80;1.00;;;;;;7380253;19;19998;-72
2024/03/16 03:19:44;;;;;;;1.35;0.70;;;9.80;1.00;;;;;;7380919;19;20007;-72
2024/03/16 03:22:17;;;;;;;1.80;0.73;;;9.80;1.00;;;;;;7381483;19;20021;-72
2024/03/16 03:24:47;;;;;;;4.00;1.13;;;9.80;1.00;;;;;;7379068;19;20117;-72
2024/03/16 03:27:17;;;;;;;1.80;0.70;;;9.80;1.00;;;;;;7378083;19;20528;-72
2024/03/16 03:29:47;;;;;;;4.28;0.88;;;9.80;1.00;;;;;;7379428;19;20870;-72
2024/03/16 03:32:17;;;;;;;2.67;0.80;;;9.90;1.00;;;;;;7380990;19;20054;-72
2024/03/16 03:34:47;;;;;;;2.33;0.90;;;9.80;1.00;;;;;;7380422;19;20010;-73
2024/03/16 03:37:20;;;;;;;3.33;0.90;;;9.70;5.40;;;;;;7379970;19;20036;-73
2024/03/16 03:39:52;;;;;;;1.10;0.82;;;9.60;21.00;;;;;;7380672;19;20031;-74
2024/03/16 03:42:25;;;;;;;1.38;0.80;;;9.60;27.60;;;;;;7380822;19;20003;-73
2024/03/16 03:45:11;;;;;;;3.28;1.33;;;9.50;46.20;;;;;;7376300;19;20040;-73
2024/03/16 03:48:00;;;;;;;1.48;0.70;;;9.40;58.40;;;;;;7380598;19;20393;-73
2024/03/16 03:50:32;;;;;;;3.45;0.88;;;9.50;83.60;;;;;;7378323;19;20045;-73
2024/03/16 03:53:06;;;;;;;2.72;1.38;;;9.50;93.70;;;;;;7378757;19;20462;-73
2024/03/16 03:55:36;;;;;;;2.92;0.90;;;9.40;99.90;;;;;;7379089;19;20095;-73
2024/03/16 03:58:06;;;;;;;4.40;0.95;;;9.40;99.90;;;;;;7379142;19;20049;-72
2024/03/16 04:00:37;;;;;;;3.53;1.00;;;9.40;99.90;;;;;;7380505;19;20017;-72
2024/03/16 04:03:07;;;;;;;3.17;1.42;;;9.40;99.90;;;;;;7379208;19;20024;-72
2024/03/16 04:05:40;;;;;;;3.00;0.90;;;9.40;99.90;;;;;;7377463;19;20006;-72
2024/03/16 04:08:13;;;;;;;4.70;1.73;;;9.30;99.90;;;;;;7378636;19;20085;-72
2024/03/16 04:10:43;;;;;;;3.35;1.02;;;9.40;99.90;;;;;;7379021;19;20011;-72
2024/03/16 04:13:13;;;;;;;2.95;1.40;;;9.40;99.90;;;;;;7378743;19;20014;-72
2024/03/16 04:15:43;;;;;;;2.50;1.20;;;9.40;99.90;;;;;;7376430;19;20463;-71
2024/03/16 04:18:13;;;;;;;2.10;1.10;;;9.40;99.90;;;;;;7377826;19;20018;-72
2024/03/16 04:20:43;;;;;;;2.55;1.00;;;9.40;99.90;;;;;;7379136;19;20014;-72
2024/03/16 04:23:16;;;;;;;3.25;1.10;;;9.40;99.90;;;;;;7378211;19;20031;-72
2024/03/16 04:25:46;;;;;;;2.33;1.20;;;9.40;99.90;;;;;;7377288;19;20664;-73
2024/03/16 04:28:16;;;;;;;2.70;0.93;;;9.40;99.90;;;;;;7377254;19;20040;-74
2024/03/16 04:30:46;;;;;;;3.13;1.20;;;9.40;99.90;;;;;;7378053;19;20014;-73
2024/03/16 04:33:16;;;;;;;1.80;1.10;;;9.40;99.90;;;;;;7377146;19;20014;-71
2024/03/16 04:35:47;;;;;;;2.75;1.10;;;9.40;99.90;;;;;;7376896;19;20018;-72
2024/03/16 04:38:20;;;;;;;3.10;0.85;;;9.40;99.90;;;;;;7377993;19;20021;-73
2024/03/16 04:40:50;;;;;;;2.90;0.82;;;9.40;99.90;;;;;;7378677;19;20363;-72
2024/03/16 04:43:20;;;;;;;3.10;1.25;;;9.40;99.90;;;;;;7378297;19;20031;-74
2024/03/16 04:45:50;;;;;;;4.10;1.20;;;9.40;99.90;;;;;;7373877;19;20070;-72
2024/03/16 04:48:21;;;;;;;2.45;1.38;;;9.30;99.90;;;;;;7377330;19;20015;-72
2024/03/16 04:50:51;;;;;;;3.08;1.30;;;9.30;99.90;;;;;;7378016;19;20026;-73
2024/03/16 04:53:23;;;;;;;3.40;1.10;;;9.30;99.90;;;;;;7379777;19;20466;-72
2024/03/16 04:55:54;;;;;;;1.83;1.13;;;9.30;99.90;;;;;;7378478;19;20425;-73
2024/03/16 04:58:25;;;;;;;4.93;1.23;;;9.30;99.90;;;;;;7377933;19;20450;-72
2024/03/16 05:00:55;;;;;;;2.53;0.98;;;9.30;99.90;;;;;;7377370;19;20609;-72
2024/03/16 05:03:26;;;;;;;2.92;1.10;;;9.30;99.90;;;;;;7373900;19;20006;-72
2024/03/16 05:05:57;;;;;;;5.35;0.90;;;9.30;99.90;;;;;;7375463;19;20383;-71
2024/03/16 05:08:30;;;;;;;2.08;0.88;;;9.30;99.90;;;;;;7377022;19;20010;-72
2024/03/16 05:11:01;;;;;;;3.92;1.40;;;9.30;99.90;;;;;;7377703;19;20412;-72
2024/03/16 05:13:31;;;;;;;1.58;0.88;;;9.30;99.90;;;;;;7377027;19;20074;-72
2024/03/16 05:16:08;;;;;;;3.08;1.10;;;9.30;99.90;;;;;;7375518;19;20011;-72
2024/03/16 05:18:37;;;;;;;;;;;9.20;99.90;;;;;;7378544;19;20011;-72
2024/03/16 05:21:08;;;;;;;2.45;1.00;;;9.20;99.90;;;;;;7377057;19;20002;-72
2024/03/16 05:23:45;;;;;;;1.88;0.80;;;9.10;99.90;;;;;;7378319;19;20007;-73
2024/03/16 05:26:15;;;;;;;1.52;0.93;;;9.20;99.90;;;;;;7376324;19;20020;-72
2024/03/16 05:28:45;;;;;;;2.92;0.80;;;9.20;99.90;;;;;;7376040;19;21187;-72
2024/03/16 05:31:15;;;;;;;4.07;1.15;;;9.20;99.90;;;;;;7376264;19;25280;-72
2024/03/16 05:33:45;;;;;;;1.90;1.00;;;9.20;99.90;;;;;;7374331;19;20051;-71
2024/03/16 05:36:16;;;;;;;3.30;1.05;;;9.20;99.90;;;;;;7375245;19;20027;-71
2024/03/16 05:38:48;;;;;;;2.83;0.95;;;9.20;99.90;;;;;;7382734;19;20372;-71
2024/03/16 05:41:18;;;;;;;1.70;0.80;;;9.10;99.90;;;;;;7383930;19;20343;-72
2024/03/16 05:43:51;;;;;;;2.05;0.77;;;9.10;99.90;;;;;;7382296;19;20404;-72
2024/03/16 05:46:21;;;;;;;2.25;0.98;;;9.10;99.90;;;;;;7381530;19;20024;-70
2024/03/16 05:48:51;;;;;;;2.03;1.02;;;9.10;99.90;;;;;;7382583;19;20010;-72
2024/03/16 05:51:21;;;;;;;1.25;0.70;;;9.10;99.90;;;;;;7382652;19;20019;-72
2024/03/16 05:53:54;;;;;;;2.50;0.90;;;9.10;99.90;;;;;;7383207;19;20014;-72
2024/03/16 05:56:24;;;;;;;2.42;0.90;;;9.20;99.90;;;;;;7381937;19;20482;-72
2024/03/16 05:58:55;;;;;;;2.78;0.98;;;9.20;99.90;;;;;;7379177;19;20043;-71
2024/03/16 06:01:25;;;;;;;2.67;0.98;;;9.30;99.90;;;;;;7382873;19;20024;-72
2024/03/16 06:03:56;;;;;;;2.35;1.00;;;9.30;99.90;;;;;;7383164;19;20834;-71
2024/03/16 06:06:26;;;;;;;3.13;1.10;;;9.30;99.90;;;;;;7380628;19;20022;-70
2024/03/16 06:08:58;;;;;;;1.60;1.02;;;9.30;99.90;;;;;;7381380;19;20010;-71
2024/03/16 06:11:29;;;;;;;3.15;1.10;;;9.40;98.90;;;;;;7381320;19;20039;-71
2024/03/16 06:13:59;;;;;;;2.83;1.00;;;9.40;96.90;;;;;;7380250;19;20462;-72
2024/03/16 06:16:29;;;;;;;2.92;1.48;;;9.40;96.10;;;;;;7380849;19;20006;-72
2024/03/16 06:18:59;;;;;;;3.67;0.98;;;9.50;94.00;;;;;;7381771;19;20010;-71
2024/03/16 06:21:29;;;;;;;3.38;0.90;;;9.50;93.30;;;;;;7381872;19;20014;-73
2024/03/16 06:24:03;;;;;;;2.63;0.90;;;9.40;87.20;;;;;;7380304;19;20086;-71
2024/03/16 06:26:36;;;;;;;1.92;1.15;;;9.40;79.50;;;;;;7380305;19;20015;-72
2024/03/16 06:29:08;;;;;;;1.90;0.95;;;9.50;82.60;;;;;;7381309;19;20048;-72
2024/03/16 06:31:41;;;;;;;5.97;1.27;;;9.50;73.90;;;;;;7382388;19;20076;-72
2024/03/16 06:34:11;;;;;;;4.38;0.82;;;9.60;70.30;;;;;;7382448;19;20441;-72
2024/03/16 06:36:41;;;;;;;0.60;0.55;;;9.60;45.10;;;;;;7381117;19;20049;-72
2024/03/16 06:39:14;;;;;;;2.90;0.68;;;9.70;38.30;;;;;;7381183;19;20002;-71
2024/03/16 06:41:44;;;;;;;2.42;0.98;;;9.70;44.10;;;;;;7382755;19;20006;-71
2024/03/16 06:44:14;;;;;;;4.35;1.50;;;9.70;35.50;;;;;;7380662;19;20006;-72
2024/03/16 06:46:44;;;;;;;1.80;1.33;;;9.70;25.70;;;;;;7379975;19;20002;-73
2024/03/16 06:49:16;;;;;;;2.35;1.33;;;9.80;26.50;;;;;;7381095;19;20707;-72
2024/03/16 06:51:46;;;;;;;3.00;1.20;;;9.80;22.60;;;;;;7382051;19;20022;-71
2024/03/16 06:54:18;;;;;;;3.65;0.80;;;9.90;16.20;;;;;;7381448;19;20026;-72
2024/03/16 06:56:48;;;;;;;2.08;0.73;;;9.90;1.00;;;;;;7379579;19;20011;-72
2024/03/16 06:59:18;;;;;;;2.05;0.77;;;10.00;1.00;;;;;;7380010;19;20048;-71
2024/03/16 07:01:49;;;;;;;0.85;0.50;;;10.00;1.00;;;;;;7380275;19;20010;-72
2024/03/16 07:04:19;;;;;;;2.60;0.85;;;10.00;1.00;;;;;;7381138;19;20018;-71
2024/03/16 07:06:49;;;;;;;1.75;0.65;;;10.00;1.00;;;;;;7379442;19;20040;-72
2024/03/16 07:09:22;;;;;;;1.50;0.65;;;10.00;1.00;;;;;;7381695;19;20011;-72
2024/03/16 07:11:53;;;;;;;2.70;0.85;;;10.00;1.00;;;;;;7382277;19;20036;-72
2024/03/16 07:14:24;;;;;;;2.38;0.70;;;10.10;1.00;;;;;;7382172;19;20010;-72
2024/03/16 07:16:54;;;;;;;1.85;0.80;;;10.10;1.00;;;;;;7379561;19;20014;-73
2024/03/16 07:19:25;;;;;;;2.00;0.85;;;10.20;1.00;;;;;;7380509;19;20010;-71
2024/03/16 07:21:55;;;;;;;1.95;0.50;;;10.40;1.00;;;;;;7381183;19;20017;-72
2024/03/16 07:24:28;;;;;;;4.32;1.00;;;10.30;1.00;;;;;;7378605;19;20014;-72
2024/03/16 07:26:58;;;;;;;1.00;0.80;;;10.40;1.00;;;;;;7376558;19;20010;-71
2024/03/16 07:29:28;;;;;;;0.82;0.40;;;10.40;1.00;;;;;;7378960;19;20039;-71
2024/03/16 07:31:58;;;;;;;2.55;0.70;;;10.30;1.00;;;;;;7379876;19;20017;-71
2024/03/16 07:34:28;;;;;;;2.50;0.70;;;10.40;1.00;;;;;;7379747;19;20126;-71
2024/03/16 07:36:59;;;;;;;2.13;0.80;;;10.30;1.00;;;;;;7378436;19;20503;-73
2024/03/16 07:39:31;;;;;;;3.13;0.60;;;10.40;1.00;;;;;;7379110;19;20014;-71
2024/03/16 07:42:02;;;;;;;5.78;0.80;;;10.40;1.00;;;;;;7380095;19;20577;-74
2024/03/16 07:44:34;;;;;;;3.40;1.00;;;10.50;1.60;;;;;;7379639;19;20499;-73
2024/03/16 07:47:04;;;;;;;2.63;0.70;;;10.50;6.60;;;;;;7380155;19;20018;-73
2024/03/16 07:49:34;;;;;;;2.10;0.90;;;10.50;6.80;;;;;;7380101;19;20029;-72
2024/03/16 07:52:05;;;;;;;1.58;0.70;;;10.60;7.30;;;;;;7379788;19;20633;-72
2024/03/16 07:54:38;;;;;;;1.70;0.60;;;10.70;2.20;;;;;;7380201;19;20035;-71
2024/03/16 07:57:08;;;;;;;2.03;0.80;;;10.70;1.00;;;;;;7380233;19;20006;-73
2024/03/16 07:59:38;;;;;;;5.40;1.73;;;10.80;1.00;;;;;;7378218;19;20035;-72
2024/03/16 08:02:09;;;;;;;3.17;0.90;;;10.80;1.00;;;;;;7380127;19;20014;-71
2024/03/16 08:04:40;;;;;;;1.23;0.60;;;10.90;1.00;;;;;;7379378;19;20007;-72
2024/03/16 08:07:10;;;;;;;3.13;0.90;;;11.10;1.00;;;;;;7376897;19;20006;-71
2024/03/16 08:09:43;;;;;;;2.50;0.88;;;11.20;1.00;;;;;;7379934;19;20010;-72
2024/03/16 08:12:13;;;;;;;4.10;1.05;;;11.40;1.00;;;;;;7379648;19;20014;-72
2024/03/16 08:14:43;;;;;;;2.78;0.93;;;11.50;1.00;;;;;;7379883;19;20031;-71
2024/03/16 08:17:13;;;;;;;3.20;1.10;;;11.50;1.00;;;;;;7380423;19;20341;-71
2024/03/16 08:19:43;;;;;;;4.28;0.98;;;11.40;1.00;;;;;;7381062;19;20018;-71
2024/03/16 08:22:13;;;;;;;5.80;1.48;;;11.30;1.00;;;;;;7380002;19;20506;-72
2024/03/16 08:24:46;;;;;;;3.88;1.20;;;11.20;1.00;;;;;;7378984;19;20015;-71
2024/03/16 08:27:17;;;;;;;3.47;0.93;;;11.30;1.00;;;;;;7377858;19;20077;-71
2024/03/16 08:29:47;;;;;;;1.35;0.85;;;11.40;1.00;;;;;;7379023;19;20014;-71
2024/03/16 08:32:17;;;;;;;2.85;0.90;;;11.50;1.00;;;;;;7379096;19;20364;-71
2024/03/16 08:34:47;;;;;;;1.92;0.98;;;11.50;1.00;;;;;;7377898;19;20010;-71
2024/03/16 08:37:17;;;;;;;3.95;0.93;;;11.50;1.00;;;;;;7379585;19;20026;-71
2024/03/16 08:39:50;;;;;;;2.90;0.95;;;11.60;1.00;;;;;;7379041;19;20097;-72
2024/03/16 08:42:20;;;;;;;1.75;0.93;;;11.50;1.00;;;;;;7378245;19;20021;-72
2024/03/16 08:44:50;;;;;;;1.65;0.88;;;11.60;1.00;;;;;;7378346;19;20498;-72
2024/03/16 08:47:20;;;;;;;3.13;0.90;;;11.60;1.00;;;;;;7373286;19;20014;-71
2024/03/16 08:49:50;;;;;;;2.15;0.70;;;11.70;1.00;;;;;;7379266;19;20022;-72
2024/03/16 08:52:20;;;;;;;2.10;0.80;;;11.70;1.00;;;;;;7379304;19;20031;-71
2024/03/16 08:54:55;;;;;;;2.97;0.65;;;11.80;1.00;;;;;;7376972;19;20518;-72
2024/03/16 08:57:26;;;;;;;2.97;0.80;;;11.90;1.00;;;;;;7378558;19;20380;-70
2024/03/16 08:59:57;;;;;;;3.50;0.90;;;12.00;1.00;;;;;;7378927;19;20010;-70
2024/03/16 09:02:27;;;;;;;5.88;1.08;;;11.90;1.00;;;;;;7378591;19;20014;-70
2024/03/16 09:04:57;;;;;;;2.70;1.10;;;11.90;1.00;;;;;;7377719;19;20015;-71
2024/03/16 09:07:28;;;;;;;1.17;0.80;;;11.90;1.00;;;;;;7372846;19;20474;-69
2024/03/16 09:10:00;;;;;;;4.13;1.23;;;12.00;1.00;;;;;;7377255;19;20904;-72
2024/03/16 09:12:31;;;;;;;1.85;0.82;;;12.00;1.00;;;;;;7375924;19;20131;-72
2024/03/16 09:15:01;;;;;;;2.95;0.98;;;12.20;1.00;;;;;;7374311;19;20014;-72
2024/03/16 09:17:33;;;;;;;3.90;0.93;;;12.10;1.00;;;;;;7375156;19;20467;-72
2024/03/16 09:20:07;;;;;;;3.83;0.90;;;12.20;1.00;;;;;;7372807;19;20049;-73
2024/03/16 09:22:38;;;;;;;1.45;0.70;;;12.10;1.00;;;;;;7377232;19;20014;-73
2024/03/16 09:25:11;;;;;;;1.95;1.00;;;12.30;1.00;;;;;;7374504;19;20027;-73
2024/03/16 09:27:45;;;;;;;2.53;1.20;;;12.10;1.00;;;;;;7373877;19;20507;-72
2024/03/16 09:30:17;;;;;;;3.53;1.10;;;12.10;1.00;;;;;;7371143;19;20020;-72
2024/03/16 09:32:48;;;;;;;2.63;1.00;;;12.40;1.00;;;;;;7369921;19;20006;-72
2024/03/16 09:35:18;;;;;;;2.17;0.60;;;12.40;1.00;;;;;;7376206;19;20102;-71
2024/03/16 09:37:48;;;;;;;1.83;0.73;;;12.30;1.00;;;;;;7378475;19;20363;-70
2024/03/16 09:40:21;;;;;;;3.50;1.25;;;12.50;1.00;;;;;;7379434;19;20022;-71
2024/03/16 09:42:52;;;;;;;3.80;1.05;;;12.90;1.00;;;;;;7370813;19;20015;-72
2024/03/16 09:45:22;;;;;;;1.13;0.80;;;12.70;1.00;;;;;;7375823;19;20487;-72
2024/03/16 09:47:51;;;;;;;1.48;0.57;;;12.40;1.00;;;;;;7377058;19;20636;-70
2024/03/16 09:50:24;;;;;;;2.58;0.90;;;12.50;1.00;;;;;;7376388;19;20379;-70
2024/03/16 09:52:54;;;;;;;1.60;0.50;;;12.60;1.00;;;;;;7376535;19;20038;-72
2024/03/16 09:55:27;;;;;;;1.55;0.65;;;12.70;1.00;;;;;;7377820;19;20504;-71
2024/03/16 09:57:56;;;;;;;1.88;0.63;;;12.60;1.00;;;;;;7377564;19;20014;-70
2024/03/16 10:00:26;;;;;;;1.52;0.70;;;12.40;1.00;;;;;;7376515;19;20027;-70
2024/03/16 10:02:57;;;;;;;1.65;0.77;;;12.60;1.00;;;;;;7376672;19;20094;-71
2024/03/16 10:05:26;;;;;;;2.47;1.10;;;12.70;1.00;;;;;;7375228;19;20010;-71
2024/03/16 10:07:56;;;;;;;3.65;1.08;;;13.20;1.00;;;;;;7374540;19;20799;-71
2024/03/16 10:10:28;;;;;;;1.08;0.47;;;12.70;1.00;;;;;;7377399;19;20013;-71
2024/03/16 10:13:07;;;;;;;1.55;0.60;;;12.70;1.00;;;;;;7376593;19;20836;-72
2024/03/16 10:15:44;;;;;;;4.68;1.42;;;12.90;1.00;;;;;;7374134;19;20010;-72
2024/03/16 10:18:14;;;;;;;6.25;1.23;;;12.80;1.00;;;;;;7373597;19;20433;-71
2024/03/16 10:20:44;;;;;;;4.75;1.00;;;13.00;1.00;;;;;;7373843;19;20416;-72
2024/03/16 10:23:15;;;;;;;3.15;1.25;;;12.90;1.00;;;;;;7376860;19;20006;-71
2024/03/16 10:25:50;;;;;;;2.15;0.63;;;12.70;1.00;;;;;;7378533;19;20010;-70
2024/03/16 10:28:18;;;;;;;;;;;12.80;1.00;;;;;;7381614;19;20011;-72
2024/03/16 10:30:48;;;;;;;1.35;0.73;;;13.00;1.00;;;;;;7380860;19;19926;-71
2024/03/16 10:33:18;;;;;;;2.78;0.90;;;13.20;1.00;;;;;;7380040;19;20011;-72
2024/03/16 10:35:49;;;;;;;3.40;1.13;;;12.80;1.00;;;;;;7377398;19;20390;-71
2024/03/16 10:38:19;;;;;;;3.03;0.75;;;13.00;1.00;;;;;;7381548;19;20080;-71
2024/03/16 10:40:52;;;;;;;2.53;0.90;;;12.80;1.00;;;;;;7381388;19;20010;-71
2024/03/16 10:43:21;;;;;;;1.58;0.50;;;13.00;1.00;;;;;;7378636;19;20506;-71
2024/03/16 10:45:51;;;;;;;2.88;0.73;;;12.80;1.00;;;;;;7379717;19;20010;-71
2024/03/16 10:48:20;;;;;;;2.00;0.80;;;12.90;1.00;;;;;;7378711;19;20379;-70
2024/03/16 10:50:51;;;;;;;1.73;0.40;;;13.10;1.00;;;;;;7380740;19;20010;-71
2024/03/16 10:53:21;;;;;;;1.30;0.75;;;12.80;1.00;;;;;;7380731;19;20014;-71
2024/03/16 10:55:52;;;;;;;1.45;0.68;;;12.90;1.00;;;;;;7379119;19;20081;-71
2024/03/16 10:58:22;;;;;;;1.63;0.57;;;12.80;1.00;;;;;;7381334;19;20126;-71
2024/03/16 11:00:52;;;;;;;2.15;0.85;;;12.80;1.00;;;;;;7379884;19;20354;-74
2024/03/16 11:03:25;;;;;;;1.48;0.65;;;12.90;1.00;;;;;;7381324;19;20007;-71
2024/03/16 11:05:57;;;;;;;1.25;0.50;;;12.90;1.00;;;;;;7381872;19;20018;-70
2024/03/16 11:08:42;;;;;;;1.60;0.85;;;13.00;1.00;;;;;;7381411;19;20809;-71
2024/03/16 11:11:17;;;;;;;1.58;0.57;;;13.40;1.00;;;;;;7378606;19;20011;-71
2024/03/16 11:14:07;;;;;;;1.00;0.70;;;13.50;1.00;;;;;;7380577;19;20018;-70
2024/03/16 11:16:39;;;;;;;3.47;1.05;;;13.60;1.00;;;;;;7376488;19;20011;-71
2024/03/16 11:19:18;;;;;;;2.65;0.90;;;13.70;1.00;;;;;;7379730;19;20006;-72
2024/03/16 11:21:52;;;;;;;1.50;0.63;;;14.10;1.00;;;;;;7378135;19;20094;-71
2024/03/16 11:24:23;;;;;;;1.92;0.70;;;13.70;1.00;;;;;;7381066;19;20048;-71
2024/03/16 11:26:55;;;;;;;2.00;0.50;;;14.30;1.00;;;;;;7379559;19;20027;-71
2024/03/16 11:29:24;;;;;;;1.50;0.63;;;14.30;1.00;;;;;;7381147;19;20006;-71
2024/03/16 11:31:56;;;;;;;0.93;0.50;;;14.30;1.00;;;;;;7377734;19;20387;-72
2024/03/16 11:34:25;;;;;;;0.55;0.45;;;14.60;1.00;;;;;;7378567;19;20035;-74
2024/03/16 11:36:55;;;;;;;1.55;0.70;;;14.80;1.00;;;;;;7378848;19;20015;-71
2024/03/16 11:39:24;;;;;;;3.22;0.75;;;15.00;1.00;;;;;;7378719;19;20025;-72
2024/03/16 11:41:58;;;;;;;2.15;1.33;;;14.70;1.00;;;;;;7380350;19;20802;-70
2024/03/16 11:44:25;;;;;;;1.58;0.85;;;14.10;1.00;;;;;;7381633;19;20014;-70
2024/03/16 11:46:54;;;;;;;2.60;0.75;;;13.80;1.00;;;;;;7380985;19;20014;-70
2024/03/16 11:49:24;;;;;;;0.70;0.50;;;14.20;1.00;;;;;;7381128;19;20121;-70
2024/03/16 11:51:54;;;;;;;0.70;0.50;;;14.20;1.00;;;;;;7378846;19;20046;-70
2024/03/16 11:54:25;;;;;;;0.90;0.50;;;14.10;1.00;;;;;;7379934;19;20429;-71
2024/03/16 11:56:56;;;;;;;2.00;0.52;;;13.70;1.00;;;;;;7380293;19;20003;-71
2024/03/16 11:59:28;;;;;;;1.20;0.60;;;13.70;1.00;;;;;;7381546;19;20014;-70
2024/03/16 12:01:55;;;;;;;1.00;0.40;;;13.80;1.00;;;;;;7380913;19;20019;-70
2024/03/16 12:04:27;;;;;;;1.70;0.40;;;13.60;1.00;;;;;;7381098;19;20007;-71
2024/03/16 12:06:56;;;;;;;2.30;0.57;;;13.40;1.00;;;;;;7380384;19;20449;-71
2024/03/16 12:09:34;;;;;;;0.80;0.50;;;13.90;1.00;;;;;;7381381;19;20037;-70
2024/03/16 12:12:07;;;;;;;0.88;0.50;;;14.20;1.00;;;;;;7381634;19;20007;-70
2024/03/16 12:14:36;;;;;;;1.63;0.60;;;14.30;1.00;;;;;;7379503;19;20019;-69
2024/03/16 12:17:04;;;;;;;1.02;0.68;;;14.00;1.00;;;;;;7379284;19;20348;-70
2024/03/16 12:19:35;;;;;;;1.92;1.25;;;14.50;1.00;;;;;;7380426;19;20027;-70
2024/03/16 12:22:06;;;;;;;1.50;0.70;;;14.80;1.00;;;;;;7378556;19;20018;-70
2024/03/16 12:24:35;;;;;;;2.45;0.68;;;14.10;1.00;;;;;;7378553;19;20010;-70
2024/03/16 12:27:05;;;;;;;0.65;0.30;;;14.20;1.00;;;;;;7379192;19;20026;-71
2024/03/16 12:29:34;;;;;;;2.08;0.68;;;14.60;1.00;;;;;;7378647;19;20501;-71
2024/03/16 12:32:00;;;;;;;1.38;0.52;;;14.70;1.00;;;;;;7378499;19;20032;-70
2024/03/16 12:34:29;;;;;;;1.20;0.60;;;15.00;1.00;;;;;;7359947;19;20007;-70
2024/03/16 12:36:55;;;;;;;1.08;0.65;;;14.10;1.00;;;;;;7360050;19;20038;-70
2024/03/16 12:39:25;;;;;;;1.63;0.60;;;14.00;1.00;;;;;;7362412;19;20011;-70
2024/03/16 12:41:52;;;;;;;1.73;0.60;;;14.30;1.00;;;;;;7362823;19;20031;-71
2024/03/16 12:44:24;;;;;;;0.77;0.50;;;14.00;1.00;;;;;;7360115;19;20393;-71
2024/03/16 12:46:51;;;;;;;1.10;0.38;;;13.60;1.00;;;;;;7360844;19;20014;-71
2024/03/16 12:49:20;;;;;;;1.30;0.47;;;13.30;1.00;;;;;;7360106;19;20010;-71
2024/03/16 12:51:46;;;;;;;2.72;0.63;;;13.80;1.00;;;;;;7359446;19;20010;-71
2024/03/16 12:54:15;;;;;;;2.45;0.40;;;13.60;1.00;;;;;;7361753;19;20478;-70
2024/03/16 12:56:47;;;;;;;1.83;0.30;;;13.50;1.00;;;;;;7359822;19;20578;-70
2024/03/16 12:59:18;;;;;;;2.35;0.50;;;13.80;1.00;;;;;;7359576;19;20013;-70
2024/03/16 13:01:47;;;;;;;0.70;0.52;;;14.10;1.00;;;;;;7360260;19;20033;-70
2024/03/16 13:04:18;;;;;;;0.52;0.32;;;13.80;1.00;;;;;;7360503;19;20010;-71
2024/03/16 13:06:44;;;;;;;0.93;0.50;;;14.00;1.00;;;;;;7359436;19;20014;-69
2024/03/16 13:09:14;;;;;;;1.35;0.30;;;13.80;1.00;;;;;;7359409;19;20007;-71
2024/03/16 13:11:40;;;;;;;0.93;0.30;;;13.90;1.00;;;;;;7362912;19;20694;-70
2024/03/16 13:14:09;;;;;;;1.25;0.40;;;14.20;1.00;;;;;;7362050;19;20386;-70
2024/03/16 13:16:36;;;;;;;1.10;0.40;;;14.20;1.00;;;;;;7359498;19;20010;-71
2024/03/16 13:19:11;;;;;;;0.82;0.50;;;14.30;1.00;;;;;;7359066;19;20021;-71